createdAt,value
2024-05-09T00:00:31.647Z,8.00
2024-05-09T00:03:05.804Z,6.03
2024-05-09T00:05:32.762Z,10.43
2024-05-09T00:07:59.914Z,5.28
2024-05-09T00:10:35.011Z,4.80
2024-05-09T00:13:04.686Z,4.60
2024-05-09T00:15:31.564Z,5.43
2024-05-09T00:17:58.492Z,5.75
2024-05-09T00:20:33.582Z,5.32
2024-05-09T00:23:05.176Z,4.20
2024-05-09T00:25:31.890Z,5.63
2024-05-09T00:27:58.547Z,5.13
2024-05-09T00:30:33.218Z,5.15
2024-05-09T00:33:03.194Z,8.60
2024-05-09T00:35:30.432Z,6.90
2024-05-09T00:37:57.381Z,6.22
2024-05-09T00:40:35.064Z,4.38
2024-05-09T00:43:06.404Z,6.43
2024-05-09T00:45:34.403Z,6.47
2024-05-09T00:48:03.546Z,6.00
2024-05-09T00:50:36.116Z,9.50
2024-05-09T00:53:07.326Z,5.85
2024-05-09T00:55:38.044Z,5.55
2024-05-09T00:58:05.485Z,5.05
2024-05-09T01:00:38.748Z,5.38
2024-05-09T01:03:12.518Z,5.90
2024-05-09T01:05:41.139Z,6.50
2024-05-09T01:08:08.926Z,5.18
2024-05-09T01:10:36.989Z,4.95
2024-05-09T01:13:04.708Z,5.32
2024-05-09T01:15:32.081Z,5.72
2024-05-09T01:18:01.410Z,6.70
2024-05-09T01:20:37.493Z,5.85
2024-05-09T01:23:09.730Z,7.35
2024-05-09T01:25:37.145Z,6.15
2024-05-09T01:28:04.173Z,7.30
2024-05-09T01:30:35.109Z,5.93
2024-05-09T01:33:08.817Z,6.47
2024-05-09T01:35:40.383Z,6.55
2024-05-09T01:38:07.531Z,6.78
2024-05-09T01:40:38.569Z,6.93
2024-05-09T01:43:10.899Z,6.18
2024-05-09T01:45:39.158Z,7.25
2024-05-09T01:48:06.830Z,7.47
2024-05-09T01:50:38.949Z,6.47
2024-05-09T01:53:13.097Z,6.90
2024-05-09T01:55:42.973Z,11.15
2024-05-09T01:58:10.074Z,6.65
2024-05-09T02:00:40.810Z,7.25
2024-05-09T02:03:12.682Z,9.60
2024-05-09T02:05:42.861Z,7.10
2024-05-09T02:08:13.804Z,7.55
2024-05-09T02:10:40.578Z,8.65
2024-05-09T02:13:07.828Z,7.50
2024-05-09T02:15:34.696Z,7.55
2024-05-09T02:18:01.610Z,8.85
2024-05-09T02:20:34.233Z,8.55
2024-05-09T02:23:04.654Z,8.98
2024-05-09T02:25:32.223Z,8.63
2024-05-09T02:27:59.161Z,7.93
2024-05-09T02:30:35.833Z,7.40
2024-05-09T02:33:07.653Z,8.82
2024-05-09T02:35:34.890Z,9.05
2024-05-09T02:38:01.784Z,8.18
2024-05-09T02:40:36.025Z,9.02
2024-05-09T02:43:05.684Z,7.13
2024-05-09T02:45:32.926Z,8.85
2024-05-09T02:48:00.027Z,7.82
2024-05-09T02:50:34.444Z,8.02
2024-05-09T02:53:06.038Z,7.80
2024-05-09T02:55:33.269Z,7.45
2024-05-09T02:58:00.010Z,6.97
2024-05-09T03:00:35.169Z,6.10
2024-05-09T03:03:07.412Z,8.90
2024-05-09T03:05:34.440Z,7.88
2024-05-09T03:08:01.357Z,7.05
2024-05-09T03:10:29.258Z,7.93
2024-05-09T03:13:09.176Z,8.23
2024-05-09T03:15:36.761Z,7.25
2024-05-09T03:18:06.537Z,7.78
2024-05-09T03:20:35.654Z,6.95
2024-05-09T03:23:06.942Z,7.53
2024-05-09T03:25:34.076Z,7.13
2024-05-09T03:28:00.860Z,7.32
2024-05-09T03:30:36.019Z,5.70
2024-05-09T03:33:10.683Z,5.93
2024-05-09T03:35:38.018Z,5.70
2024-05-09T03:38:04.965Z,6.30
2024-05-09T03:40:33.926Z,6.93
2024-05-09T03:43:00.679Z,5.63
2024-05-09T03:45:27.357Z,6.50
2024-05-09T03:47:54.198Z,6.30
2024-05-09T03:50:29.703Z,5.28
2024-05-09T03:53:01.352Z,4.70
2024-05-09T03:55:30.736Z,5.82
2024-05-09T03:57:57.422Z,5.82
2024-05-09T04:00:31.326Z,5.40
2024-05-09T04:03:06.418Z,6.60
2024-05-09T04:05:35.097Z,6.75
2024-05-09T04:08:02.139Z,5.10
2024-05-09T04:10:33.330Z,5.13
2024-05-09T04:13:01.806Z,5.22
2024-05-09T04:15:28.578Z,5.65
2024-05-09T04:17:55.993Z,5.55
2024-05-09T04:20:33.364Z,4.72
2024-05-09T04:23:06.833Z,5.20
2024-05-09T04:25:34.127Z,4.90
2024-05-09T04:28:00.878Z,6.15
2024-05-09T04:30:36.406Z,5.40
2024-05-09T04:35:34.184Z,4.85
2024-05-09T04:38:03.221Z,5.07
2024-05-09T04:40:34.198Z,7.07
2024-05-09T04:43:04.255Z,4.82
2024-05-09T04:45:31.106Z,10.07
2024-05-09T04:47:58.351Z,11.68
2024-05-09T04:50:35.196Z,7.68
2024-05-09T04:53:05.466Z,6.97
2024-05-09T04:55:32.886Z,11.27
2024-05-09T04:57:59.620Z,12.18
2024-05-09T05:00:34.508Z,8.50
2024-05-09T05:03:09.495Z,5.72
2024-05-09T05:05:38.276Z,6.10
2024-05-09T05:08:05.958Z,5.38
2024-05-09T05:10:36.275Z,6.18
2024-05-09T05:13:04.234Z,15.05
2024-05-09T05:15:30.878Z,12.90
2024-05-09T05:17:58.098Z,7.97
2024-05-09T05:20:32.552Z,6.97
2024-05-09T05:23:02.536Z,9.95
2024-05-09T05:25:29.337Z,6.97
2024-05-09T05:27:56.021Z,15.10
2024-05-09T05:30:28.763Z,13.45
2024-05-09T05:33:00.161Z,15.38
2024-05-09T05:35:27.278Z,9.25
2024-05-09T05:37:54.096Z,9.65
2024-05-09T05:40:28.222Z,7.50
2024-05-09T05:43:02.738Z,7.00
2024-05-09T05:45:29.410Z,6.57
2024-05-09T05:47:56.745Z,5.57
2024-05-09T05:50:28.161Z,14.93
2024-05-09T05:53:02.215Z,14.35
2024-05-09T05:55:29.064Z,16.45
2024-05-09T05:57:55.746Z,15.82
2024-05-09T06:00:29.746Z,20.42
2024-05-09T06:03:04.705Z,7.05
2024-05-09T06:05:31.791Z,8.55
2024-05-09T06:07:58.775Z,10.13
2024-05-09T06:10:30.269Z,8.55
2024-05-09T06:13:04.216Z,14.70
2024-05-09T06:15:30.964Z,19.30
2024-05-09T06:17:58.000Z,19.40
2024-05-09T06:20:34.293Z,10.30
2024-05-09T06:23:04.060Z,23.67
2024-05-09T06:25:30.881Z,17.80
2024-05-09T06:27:57.586Z,27.02
2024-05-09T06:30:30.839Z,27.63
2024-05-09T06:33:06.056Z,30.55
2024-05-09T06:35:33.717Z,31.92
2024-05-09T06:38:01.009Z,42.22
2024-05-09T06:40:36.310Z,36.17
2024-05-09T06:43:05.953Z,39.90
2024-05-09T06:45:35.602Z,26.20
2024-05-09T06:48:02.629Z,38.42
2024-05-09T06:50:36.832Z,21.33
2024-05-09T06:53:05.109Z,37.80
2024-05-09T06:55:32.091Z,39.42
2024-05-09T06:57:58.830Z,49.50
2024-05-09T07:00:34.468Z,35.65
2024-05-09T07:03:13.107Z,22.85
2024-05-09T07:05:43.460Z,40.53
2024-05-09T07:08:10.345Z,33.72
2024-05-09T07:10:37.668Z,20.48
2024-05-09T07:13:11.372Z,31.40
2024-05-09T07:15:38.488Z,45.88
2024-05-09T07:18:09.876Z,40.40
2024-05-09T07:20:36.820Z,43.58
2024-05-09T07:23:03.724Z,41.42
2024-05-09T07:25:30.741Z,31.50
2024-05-09T07:27:57.628Z,29.27
2024-05-09T07:30:30.807Z,34.58
2024-05-09T07:33:02.558Z,39.65
2024-05-09T07:35:30.455Z,38.08
2024-05-09T07:37:57.577Z,39.55
2024-05-09T07:40:32.461Z,46.03
2024-05-09T07:43:07.555Z,41.30
2024-05-09T07:52:23.930Z,41.03
2024-05-09T07:53:39.038Z,40.55
2024-05-09T07:56:09.618Z,46.28
2024-05-09T07:58:37.069Z,33.10
2024-05-09T08:01:04.091Z,47.92
2024-05-09T08:03:31.449Z,45.72
2024-05-09T08:05:58.172Z,30.00
2024-05-09T08:08:25.013Z,47.95
2024-05-09T08:10:51.867Z,48.90
2024-05-09T08:13:18.789Z,49.10
2024-05-09T08:15:45.726Z,46.67
2024-05-09T08:18:12.902Z,46.83
2024-05-09T08:20:40.483Z,42.47
2024-05-09T08:23:07.406Z,52.80
2024-05-09T08:25:34.100Z,48.42
2024-05-09T08:28:00.868Z,47.22
2024-05-09T08:30:33.685Z,53.45
2024-05-09T08:33:04.493Z,51.28
2024-05-09T08:35:32.191Z,50.42
2024-05-09T08:37:59.182Z,48.45
2024-05-09T08:40:33.412Z,44.30
2024-05-09T08:43:03.281Z,46.55
2024-05-09T08:45:30.952Z,48.97
2024-05-09T08:47:58.884Z,47.40
2024-05-09T08:50:32.330Z,47.15
2024-05-09T08:53:05.275Z,44.88
2024-05-09T08:55:34.899Z,48.58
2024-05-09T08:58:03.679Z,43.10
2024-05-09T09:00:36.753Z,46.08
2024-05-09T09:03:06.152Z,45.53
2024-05-09T09:05:34.156Z,42.95
2024-05-09T09:08:04.728Z,41.78
2024-05-09T09:10:32.809Z,41.65
2024-05-09T09:13:03.293Z,40.08
2024-05-09T09:15:30.334Z,43.17
2024-05-09T09:17:57.775Z,45.42
2024-05-09T09:20:35.304Z,38.92
2024-05-09T09:23:03.908Z,39.67
2024-05-09T09:25:30.794Z,39.92
2024-05-09T09:27:58.550Z,42.63
2024-05-09T09:30:35.133Z,37.42
2024-05-09T09:33:05.502Z,34.55
2024-05-09T09:35:32.455Z,36.85
2024-05-09T09:38:02.468Z,33.95
2024-05-09T09:40:36.142Z,36.03
2024-05-09T09:43:14.128Z,41.90
2024-05-09T09:45:42.239Z,36.42
2024-05-09T09:48:10.632Z,32.83
2024-05-09T09:50:37.816Z,37.85
2024-05-09T09:53:05.354Z,34.42
2024-05-09T09:55:32.727Z,34.13
2024-05-09T09:58:02.648Z,39.22
2024-05-09T10:00:33.137Z,41.65
2024-05-09T10:03:01.610Z,39.78
2024-05-09T10:05:29.096Z,39.25
2024-05-09T10:07:56.589Z,43.85
2024-05-09T10:10:31.395Z,41.20
2024-05-09T10:13:06.951Z,35.70
2024-05-09T10:16:07.375Z,40.20
2024-05-09T10:18:41.055Z,37.78
2024-05-09T10:21:20.768Z,39.33
2024-05-09T10:23:57.420Z,40.40
2024-05-09T10:26:34.213Z,36.10
2024-05-09T10:29:01.508Z,38.78
2024-05-09T10:31:29.331Z,37.38
2024-05-09T10:33:56.497Z,36.10
2024-05-09T10:36:26.795Z,36.78
2024-05-09T10:38:54.433Z,35.42
2024-05-09T10:41:22.774Z,36.28
2024-05-09T10:43:50.134Z,33.70
2024-05-09T10:46:17.111Z,32.03
2024-05-09T10:48:44.436Z,35.10
2024-05-09T10:51:11.898Z,32.28
2024-05-09T10:53:46.022Z,36.03
2024-05-09T10:56:16.469Z,36.38
2024-05-09T10:58:43.308Z,33.17
2024-05-09T11:01:10.907Z,30.05
2024-05-09T11:03:38.797Z,27.88
2024-05-09T11:06:06.051Z,27.13
2024-05-09T11:08:33.126Z,28.48
2024-05-09T11:11:00.366Z,27.48
2024-05-09T11:13:33.897Z,25.20
2024-05-09T11:16:01.721Z,26.13
2024-05-09T11:18:33.476Z,25.20
2024-05-09T11:21:03.003Z,28.55
2024-05-09T11:23:29.893Z,26.45
2024-05-09T11:25:57.864Z,25.80
2024-05-09T11:28:26.822Z,29.45
2024-05-09T11:31:08.361Z,26.92
2024-05-09T11:33:43.859Z,30.92
2024-05-09T11:36:11.065Z,26.02
2024-05-09T11:38:37.721Z,24.70
2024-05-09T11:41:05.246Z,25.23
2024-05-09T11:43:32.301Z,27.83
2024-05-09T11:46:00.848Z,25.15
2024-05-09T11:48:28.103Z,25.40
2024-05-09T11:50:55.466Z,25.17
2024-05-09T11:53:22.418Z,26.42
2024-05-09T11:55:49.219Z,28.10
2024-05-09T11:58:16.004Z,27.10
2024-05-09T12:00:43.271Z,24.77
2024-05-09T12:03:10.060Z,26.83
2024-05-09T12:05:36.913Z,25.98
2024-05-09T12:08:04.771Z,25.08
2024-05-09T12:10:34.420Z,28.08
2024-05-09T12:13:06.584Z,32.33
2024-05-09T12:15:36.277Z,30.27
2024-05-09T12:18:04.532Z,27.25
2024-05-09T12:20:37.225Z,27.30
2024-05-09T12:23:06.925Z,28.50
2024-05-09T12:25:34.224Z,27.40
2024-05-09T12:28:01.268Z,23.15
2024-05-09T12:30:36.098Z,24.20
2024-05-09T12:33:11.107Z,25.20
2024-05-09T12:35:39.164Z,21.95
2024-05-09T12:38:05.827Z,22.45
2024-05-09T12:40:36.810Z,27.08
2024-05-09T12:43:09.889Z,27.65
2024-05-09T12:45:38.120Z,25.50
2024-05-09T12:48:05.637Z,26.75
2024-05-09T12:50:34.285Z,24.65
2024-05-09T12:53:03.039Z,26.88
2024-05-09T12:55:37.188Z,27.13
2024-05-09T12:58:11.525Z,26.20
2024-05-09T13:00:38.585Z,27.98
2024-05-09T13:03:05.768Z,27.45
2024-05-09T13:05:32.753Z,28.50
2024-05-09T13:07:59.648Z,28.95
2024-05-09T13:10:32.033Z,32.03
2024-05-09T13:13:01.302Z,30.55
2024-05-09T13:15:30.746Z,30.77
2024-05-09T13:18:00.558Z,28.25
2024-05-09T13:20:33.528Z,25.95
2024-05-09T13:23:03.167Z,20.73
2024-05-09T13:25:29.849Z,21.10
2024-05-09T13:27:57.460Z,23.95
2024-05-09T13:30:33.970Z,18.77
2024-05-09T13:33:06.627Z,18.85
2024-05-09T13:35:34.143Z,17.77
2024-05-09T13:38:01.783Z,18.83
2024-05-09T13:40:33.626Z,18.40
2024-05-09T13:43:05.854Z,19.40
2024-05-09T13:45:33.441Z,16.75
2024-05-09T13:48:02.936Z,18.60
2024-05-09T13:50:35.707Z,19.10
2024-05-09T13:53:05.079Z,20.17
2024-05-09T13:55:32.738Z,18.33
2024-05-09T13:57:59.568Z,17.48
2024-05-09T14:00:38.441Z,17.83
2024-05-09T14:03:12.101Z,20.38
2024-05-09T14:05:39.025Z,21.20
2024-05-09T14:08:06.152Z,18.70
2024-05-09T14:10:33.036Z,16.35
2024-05-09T14:13:00.460Z,19.05
2024-05-09T14:15:27.515Z,17.85
2024-05-09T14:17:55.066Z,18.13
2024-05-09T14:22:51.399Z,19.90
2024-05-09T14:25:18.284Z,18.85
2024-05-09T14:27:45.218Z,20.08
2024-05-09T14:30:18.467Z,22.48
2024-05-09T14:32:53.157Z,21.15
2024-05-09T14:35:20.010Z,19.80
2024-05-09T14:37:46.786Z,22.77
2024-05-09T14:40:26.288Z,24.23
2024-05-09T14:43:02.576Z,20.63
2024-05-09T14:45:29.763Z,25.38
2024-05-09T14:47:56.815Z,21.58
2024-05-09T14:50:28.315Z,22.95
2024-05-09T14:53:03.999Z,23.45
2024-05-09T14:55:30.913Z,23.35
2024-05-09T14:57:57.898Z,23.38
2024-05-09T15:00:29.034Z,22.23
2024-05-09T15:03:00.564Z,22.10
2024-05-09T15:05:27.639Z,19.83
2024-05-09T15:07:54.505Z,18.75
2024-05-09T15:10:27.475Z,19.42
2024-05-09T15:13:01.344Z,16.35
2024-05-09T15:15:28.181Z,22.17
2024-05-09T15:17:55.403Z,20.58
2024-05-09T15:20:31.042Z,21.38
2024-05-09T15:23:02.317Z,18.23
2024-05-09T15:25:29.235Z,16.80
2024-05-09T15:27:56.222Z,20.92
2024-05-09T15:32:52.834Z,17.90
2024-05-09T15:35:20.467Z,16.38
2024-05-09T15:37:47.266Z,17.75
2024-05-09T15:40:18.862Z,12.10
2024-05-09T15:42:52.930Z,18.08
2024-05-09T15:45:19.603Z,17.75
2024-05-09T15:47:46.302Z,10.35
2024-05-09T15:50:27.630Z,12.18
2024-05-09T15:52:59.329Z,10.15
2024-05-09T15:55:26.122Z,10.55
2024-05-09T15:57:57.410Z,11.73
2024-05-09T16:00:29.381Z,9.15
2024-05-09T16:03:04.889Z,11.45
2024-05-09T16:05:31.815Z,8.90
2024-05-09T16:07:58.768Z,13.35
2024-05-09T16:10:30.111Z,8.05
2024-05-09T16:12:59.506Z,7.80
2024-05-09T16:15:28.676Z,10.38
2024-05-09T16:17:56.661Z,9.38
2024-05-09T16:22:53.262Z,10.95
2024-05-09T16:25:20.141Z,7.63
2024-05-09T16:27:47.086Z,10.77
2024-05-09T16:30:21.292Z,12.27
2024-05-09T16:32:55.285Z,8.32
2024-05-09T16:35:22.044Z,8.02
2024-05-09T16:37:49.302Z,8.30
2024-05-09T16:40:25.223Z,15.23
2024-05-09T16:43:03.293Z,9.07
2024-05-09T16:45:30.292Z,11.50
2024-05-09T16:47:57.328Z,7.82
2024-05-09T16:50:29.437Z,12.43
2024-05-09T16:52:59.986Z,8.60
2024-05-09T16:55:26.973Z,7.18
2024-05-09T16:57:53.873Z,10.13
2024-05-09T17:00:31.095Z,9.10
2024-05-09T17:03:06.431Z,9.40
2024-05-09T17:05:34.060Z,12.13
2024-05-09T17:08:01.080Z,10.43
2024-05-09T17:10:32.666Z,15.30
2024-05-09T17:13:02.020Z,12.52
2024-05-09T17:15:28.892Z,10.15
2024-05-09T17:17:55.979Z,12.93
2024-05-09T17:20:29.798Z,10.48
2024-05-09T17:23:02.051Z,8.25
2024-05-09T17:25:31.263Z,7.97
2024-05-09T17:27:58.162Z,10.80
2024-05-09T17:30:32.121Z,8.52
2024-05-09T17:33:04.238Z,8.05
2024-05-09T17:35:32.075Z,9.50
2024-05-09T17:37:59.010Z,6.75
2024-05-09T17:40:32.495Z,7.00
2024-05-09T17:43:02.676Z,14.13
2024-05-09T17:45:29.731Z,10.88
2024-05-09T17:47:56.667Z,6.97
2024-05-09T17:50:30.354Z,9.43
2024-05-09T17:53:01.844Z,8.18
2024-05-09T17:55:28.856Z,6.85
2024-05-09T17:57:55.856Z,10.25
2024-05-09T18:00:33.087Z,8.18
2024-05-09T18:03:05.908Z,6.30
2024-05-09T18:05:33.045Z,10.75
2024-05-09T18:07:59.977Z,8.20
2024-05-09T18:10:33.740Z,7.40
2024-05-09T18:13:04.698Z,6.15
2024-05-09T18:15:31.623Z,9.15
2024-05-09T18:17:58.536Z,7.03
2024-05-09T18:20:36.062Z,6.78
2024-05-09T18:23:08.340Z,8.05
2024-05-09T18:25:35.175Z,6.30
2024-05-09T18:28:02.823Z,7.88
2024-05-09T18:30:34.742Z,8.27
2024-05-09T18:33:04.938Z,7.03
2024-05-09T18:35:32.739Z,7.18
2024-05-09T18:37:59.508Z,6.60
2024-05-09T18:40:32.962Z,6.22
2024-05-09T18:43:03.403Z,7.85
2024-05-09T18:45:30.697Z,7.32
2024-05-09T18:47:57.968Z,6.70
2024-05-09T18:50:33.745Z,5.35
2024-05-09T18:53:05.736Z,6.50
2024-05-09T18:55:32.587Z,11.80
2024-05-09T18:57:59.404Z,11.85
2024-05-09T19:00:34.122Z,8.43
2024-05-09T19:03:05.475Z,10.55
2024-05-09T19:05:36.284Z,8.88
2024-05-09T19:08:03.427Z,9.82
2024-05-09T19:10:34.348Z,9.68
2024-05-09T19:13:06.547Z,9.00
2024-05-09T19:15:40.464Z,9.60
2024-05-09T19:18:08.029Z,8.57
2024-05-09T19:20:36.558Z,7.75
2024-05-09T19:23:04.970Z,8.95
2024-05-09T19:25:32.910Z,7.25
2024-05-09T19:28:00.119Z,9.32
2024-05-09T19:30:36.414Z,9.10
2024-05-09T19:33:07.929Z,9.48
2024-05-09T19:35:34.877Z,7.65
2024-05-09T19:38:01.919Z,7.35
2024-05-09T19:40:32.043Z,8.05
2024-05-09T19:45:34.835Z,8.43
2024-05-09T19:48:02.627Z,7.15
2024-05-09T19:50:39.970Z,7.38
2024-05-09T19:53:10.816Z,6.40
2024-05-09T19:55:37.967Z,6.85
2024-05-09T19:58:06.329Z,8.35
2024-05-09T20:00:36.722Z,7.43
2024-05-09T20:03:05.827Z,7.47
2024-05-09T20:05:33.348Z,7.10
2024-05-09T20:08:00.297Z,6.25
2024-05-09T20:10:32.096Z,6.40
2024-05-09T20:13:01.381Z,7.75
2024-05-09T20:15:28.144Z,17.40
2024-05-09T20:17:55.287Z,6.18
2024-05-09T20:22:51.873Z,7.75
2024-05-09T20:25:18.662Z,7.03
2024-05-09T20:27:45.443Z,7.45
2024-05-09T20:30:14.698Z,8.05
2024-05-09T20:32:50.106Z,7.15
2024-05-09T20:35:17.052Z,7.90
2024-05-09T20:37:43.781Z,7.10
2024-05-09T20:40:18.173Z,6.50
2024-05-09T20:42:54.292Z,7.85
2024-05-09T20:45:21.022Z,7.43
2024-05-09T20:47:49.772Z,7.10
2024-05-09T20:50:27.851Z,7.18
2024-05-09T20:53:02.782Z,7.57
2024-05-09T20:55:29.615Z,7.78
2024-05-09T20:57:56.391Z,7.90
2024-05-09T21:00:30.022Z,7.72
2024-05-09T21:03:05.142Z,9.18
2024-05-09T21:05:32.202Z,7.85
2024-05-09T21:07:59.050Z,8.38
2024-05-09T21:10:27.181Z,8.27
2024-05-09T21:12:56.528Z,8.57
2024-05-09T21:15:23.251Z,8.05
2024-05-09T21:17:49.985Z,8.05
2024-05-09T21:20:20.670Z,8.02
2024-05-09T21:22:51.019Z,8.95
2024-05-09T21:25:17.769Z,9.38
2024-05-09T21:27:44.740Z,9.00
2024-05-09T21:30:18.651Z,9.20
2024-05-09T21:32:54.284Z,16.98
2024-05-09T21:35:21.311Z,10.32
2024-05-09T21:37:48.076Z,9.02
2024-05-09T21:40:24.254Z,10.45
2024-05-09T21:42:58.089Z,13.13
2024-05-09T21:45:24.914Z,10.20
2024-05-09T21:47:51.729Z,10.52
2024-05-09T21:50:23.222Z,9.10
2024-05-09T21:52:55.323Z,10.93
2024-05-09T21:55:22.152Z,9.57
2024-05-09T21:57:48.887Z,11.18
2024-05-09T22:00:28.146Z,11.35
2024-05-09T22:03:01.859Z,10.45
2024-05-09T22:05:28.727Z,11.75
2024-05-09T22:07:55.558Z,12.45
2024-05-09T22:10:26.524Z,11.88
2024-05-09T22:13:01.866Z,13.38
2024-05-09T22:15:28.855Z,13.32
2024-05-09T22:17:56.954Z,12.70
2024-05-09T22:20:32.945Z,12.43
2024-05-09T22:23:03.512Z,13.20
2024-05-09T22:25:31.209Z,11.82
2024-05-09T22:27:59.111Z,13.93
2024-05-09T22:30:34.240Z,13.20
2024-05-09T22:33:05.681Z,12.23
2024-05-09T22:35:32.936Z,12.80
2024-05-09T22:37:59.681Z,13.27
2024-05-09T22:40:38.408Z,12.32
2024-05-09T22:43:13.791Z,12.85
2024-05-09T22:45:40.905Z,13.75
2024-05-09T22:48:08.717Z,15.75
2024-05-09T22:50:35.826Z,14.05
2024-05-09T22:53:04.704Z,14.93
2024-05-09T22:55:31.351Z,15.20
2024-05-09T22:57:58.121Z,16.13
2024-05-09T23:00:31.098Z,16.90
2024-05-09T23:03:00.341Z,15.35
2024-05-09T23:05:27.504Z,16.58
2024-05-09T23:07:54.377Z,16.65
2024-05-09T23:10:31.700Z,16.10
2024-05-09T23:13:03.109Z,16.88
2024-05-09T23:15:30.192Z,16.05
2024-05-09T23:17:57.030Z,15.68
2024-05-09T23:20:33.403Z,17.80
2024-05-09T23:23:05.721Z,15.18
2024-05-09T23:25:34.968Z,15.75
2024-05-09T23:28:01.968Z,17.52
2024-05-09T23:30:36.624Z,17.58
2024-05-09T23:33:06.961Z,15.18
2024-05-09T23:35:33.985Z,15.38
2024-05-09T23:38:00.666Z,16.90
2024-05-09T23:40:37.419Z,18.17
2024-05-09T23:43:07.649Z,17.25
2024-05-09T23:45:35.001Z,18.73
2024-05-09T23:48:01.920Z,18.77
2024-05-09T23:50:35.803Z,16.27
2024-05-09T23:53:05.832Z,19.83
2024-05-09T23:55:33.101Z,16.15
2024-05-09T23:58:00.570Z,17.27
